createdAt,value
2018-09-02T00:00:32.879Z,96081.8
2018-09-02T00:01:35.318Z,96080.3
2018-09-02T00:02:37.767Z,96082.1
2018-09-02T00:03:40.215Z,96077
2018-09-02T00:04:42.370Z,96077.5
2018-09-02T00:05:44.800Z,96076.2
2018-09-02T00:06:47.238Z,96073.4
2018-09-02T00:07:49.677Z,96072.1
2018-09-02T00:08:52.101Z,96071.1
2018-09-02T00:09:54.257Z,96071.4
2018-09-02T00:10:56.697Z,96070.8
2018-09-02T00:11:59.130Z,96065.7
2018-09-02T00:13:01.045Z,96067.9
2018-09-02T00:14:03.214Z,96065
2018-09-02T00:15:05.650Z,96066
2018-09-02T00:16:08.084Z,96069.6
2018-09-02T00:17:10.535Z,96066.7
2018-09-02T00:18:12.969Z,96067.4
2018-09-02T00:19:15.142Z,96065.9
2018-09-02T00:20:17.573Z,96066.9
2018-09-02T00:21:19.747Z,96060.8
2018-09-02T00:22:22.168Z,96062.7
2018-09-02T00:23:24.606Z,96061.5
2018-09-02T00:24:27.039Z,96064
2018-09-02T00:25:29.464Z,96060.4
2018-09-02T00:26:31.903Z,96062.8
2018-09-02T00:27:33.799Z,96061.4
2018-09-02T00:28:36.235Z,96060.7
2018-09-02T00:29:38.710Z,96057.6
2018-09-02T00:30:41.137Z,96055.7
2018-09-02T00:31:43.575Z,96055.7
2018-09-02T00:32:46.007Z,96055.1
2018-09-02T00:33:48.885Z,96055.9
2018-09-02T00:34:51.516Z,96049.5
2018-09-02T00:35:53.950Z,96052.9
2018-09-02T00:36:56.141Z,96052.2
2018-09-02T00:37:58.563Z,96052.5
2018-09-02T00:39:00.708Z,96051
2018-09-02T00:40:03.170Z,96050.3
2018-09-02T00:41:05.593Z,96048.9
2018-09-02T00:42:08.019Z,96048.4
2018-09-02T00:43:10.467Z,96048.4
2018-09-02T00:44:12.894Z,96043.9
2018-09-02T00:45:15.327Z,96047.7
2018-09-02T00:46:17.776Z,96046.3
2018-09-02T00:47:20.208Z,96041.4
2018-09-02T00:48:22.359Z,96041.1
2018-09-02T00:49:24.807Z,96039.4
2018-09-02T00:50:27.237Z,96040.4
2018-09-02T00:51:29.673Z,96041.3
2018-09-02T00:52:32.107Z,96041.9
2018-09-02T00:53:34.536Z,96038.2
2018-09-02T00:54:36.982Z,96034.8
2018-09-02T00:55:39.414Z,96036.5
2018-09-02T00:56:41.592Z,96039.1
2018-09-02T00:57:44.034Z,96038.7
2018-09-02T00:58:46.473Z,96036.7
2018-09-02T00:59:48.906Z,96033.8
2018-09-02T01:00:51.358Z,96035.7
2018-09-02T01:01:53.813Z,96035.2
2018-09-02T01:02:56.243Z,96037
2018-09-02T01:03:58.397Z,96035.4
2018-09-02T01:05:00.836Z,96029.7
2018-09-02T01:06:03.266Z,96032.3
2018-09-02T01:07:05.708Z,96036.5
2018-09-02T01:08:08.152Z,96039.2
2018-09-02T01:09:10.592Z,96039
2018-09-02T01:10:12.745Z,96034.9
2018-09-02T01:11:15.182Z,96038.2
2018-09-02T01:12:17.615Z,96039
2018-09-02T01:13:20.068Z,96038.5
2018-09-02T01:14:22.501Z,96036.6
2018-09-02T01:15:24.936Z,96039.3
2018-09-02T01:16:27.366Z,96037.6
2018-09-02T01:17:29.808Z,96039.7
2018-09-02T01:18:32.232Z,96041.3
2018-09-02T01:19:34.701Z,96037
2018-09-02T01:20:37.126Z,96042.8
2018-09-02T01:21:39.568Z,96039.1
2018-09-02T01:22:42.001Z,96039.6
2018-09-02T01:23:44.431Z,96034.7
2018-09-02T01:24:46.868Z,96040.3
2018-09-02T01:25:49.017Z,96035.8
2018-09-02T01:26:51.444Z,96034.2
2018-09-02T01:27:53.877Z,96029.4
2018-09-02T01:28:56.308Z,96028.8
2018-09-02T01:29:58.736Z,96028.5
2018-09-02T01:31:01.178Z,96028.1
2018-09-02T01:32:03.613Z,96026.3
2018-09-02T01:33:06.037Z,96029.4
2018-09-02T01:34:08.702Z,96030.3
2018-09-02T01:35:11.145Z,96028.9
2018-09-02T01:36:13.576Z,96025.8
2018-09-02T01:37:15.997Z,96024.8
2018-09-02T01:38:18.435Z,96023.9
2018-09-02T01:39:20.872Z,96019.3
2018-09-02T01:40:23.308Z,96021.1
2018-09-02T01:41:25.756Z,96023.6
2018-09-02T01:42:28.196Z,96021.4
2018-09-02T01:43:30.624Z,96019.3
2018-09-02T01:44:33.083Z,96019.3
2018-09-02T01:45:35.526Z,96023
2018-09-02T01:46:37.961Z,96023.2
2018-09-02T01:47:40.394Z,96024.7
2018-09-02T01:48:42.826Z,96019.8
2018-09-02T01:49:44.985Z,96022.9
2018-09-02T01:50:47.417Z,96024.1
2018-09-02T01:51:49.576Z,96020.5
2018-09-02T01:52:51.717Z,96021.2
2018-09-02T01:53:54.162Z,96018.3
2018-09-02T01:54:56.608Z,96019.8
2018-09-02T01:55:59.026Z,96016.2
2018-09-02T01:57:01.477Z,96016.4
2018-09-02T01:58:03.908Z,96017
2018-09-02T01:59:06.338Z,96019.2
2018-09-02T02:00:08.773Z,96012.5
2018-09-02T02:01:11.202Z,96012.7
2018-09-02T02:02:13.630Z,96008.4
2018-09-02T02:03:15.818Z,96006.5
2018-09-02T02:04:18.247Z,96006.2
2018-09-02T02:05:20.674Z,95999.3
2018-09-02T02:06:22.551Z,96003
2018-09-02T02:07:24.976Z,96000.9
2018-09-02T02:08:27.417Z,95999.7
2018-09-02T02:09:29.852Z,96003.5
2018-09-02T02:10:32.272Z,95997
2018-09-02T02:11:34.714Z,95991.5
2018-09-02T02:12:37.144Z,95986.9
2018-09-02T02:13:39.331Z,95992.1
2018-09-02T02:14:41.770Z,95987.8
2018-09-02T02:15:44.215Z,95985.7
2018-09-02T02:16:46.645Z,95984.8
2018-09-02T02:17:49.082Z,95982.1
2018-09-02T02:18:51.515Z,95981.7
2018-09-02T02:19:53.965Z,95978.3
2018-09-02T02:20:56.404Z,95980.5
2018-09-02T02:21:58.582Z,95977.9
2018-09-02T02:23:01.022Z,95976.9
2018-09-02T02:24:03.450Z,95973.3
2018-09-02T02:25:05.609Z,95975.2
2018-09-02T02:26:08.049Z,95973.8
2018-09-02T02:27:10.473Z,95971.3
2018-09-02T02:28:12.902Z,95971.5
2018-09-02T02:29:15.366Z,95972.8
2018-09-02T02:30:17.823Z,95968.9
2018-09-02T02:31:19.967Z,95971.3
2018-09-02T02:32:22.426Z,95969.7
2018-09-02T02:33:24.854Z,95967.5
2018-09-02T02:34:27.287Z,95970.8
2018-09-02T02:35:29.727Z,95966.5
2018-09-02T02:36:32.165Z,95970.5
2018-09-02T02:37:34.599Z,95971.1
2018-09-02T02:38:37.022Z,95968
2018-09-02T02:39:39.194Z,95970.2
2018-09-02T02:40:41.625Z,95970.9
2018-09-02T02:41:44.065Z,95967.5
2018-09-02T02:42:46.507Z,95971.1
2018-09-02T02:43:48.940Z,95969.2
2018-09-02T02:44:51.374Z,95971.8
2018-09-02T02:45:53.805Z,95969.2
2018-09-02T02:46:56.228Z,95968.2
2018-09-02T02:47:58.668Z,95970.4
2018-09-02T02:49:01.109Z,95970.5
2018-09-02T02:50:03.533Z,95966.9
2018-09-02T02:51:05.973Z,95970.3
2018-09-02T02:52:08.134Z,95969.3
2018-09-02T02:53:10.567Z,95973.4
2018-09-02T02:54:13.012Z,95975.6
2018-09-02T02:55:15.435Z,95977.9
2018-09-02T02:56:17.858Z,95974.8
2018-09-02T02:57:20.305Z,95976
2018-09-02T02:58:22.746Z,95974.4
2018-09-02T02:59:25.184Z,95973.4
2018-09-02T03:00:27.627Z,95973.4
2018-09-02T03:01:30.081Z,95968.6
2018-09-02T03:02:32.523Z,95967.1
2018-09-02T03:03:34.955Z,95966.6
2018-09-02T03:04:37.437Z,95962.3
2018-09-02T03:05:39.867Z,95965.1
2018-09-02T03:06:42.304Z,95960.5
2018-09-02T03:07:44.759Z,95959.3
2018-09-02T03:08:47.185Z,95958.1
2018-09-02T03:09:49.637Z,95954
2018-09-02T03:10:52.573Z,95954.7
2018-09-02T03:11:54.867Z,95952.2
2018-09-02T03:12:57.304Z,95950.8
2018-09-02T03:13:59.756Z,95954.3
2018-09-02T03:15:02.187Z,95952.4
2018-09-02T03:16:04.067Z,95951.7
2018-09-02T03:17:06.502Z,95951.9
2018-09-02T03:18:08.935Z,95951.9
2018-09-02T03:19:11.391Z,95949.9
2018-09-02T03:20:13.848Z,95950.3
2018-09-02T03:21:16.280Z,95948.9
2018-09-02T03:22:18.449Z,95949.4
2018-09-02T03:23:20.898Z,95948.1
2018-09-02T03:24:23.043Z,95951.4
2018-09-02T03:25:25.473Z,95950.6
2018-09-02T03:26:27.908Z,95950.9
2018-09-02T03:27:30.347Z,95946.3
2018-09-02T03:28:32.794Z,95947.5
2018-09-02T03:29:35.218Z,95945.2
2018-09-02T03:30:37.651Z,95950.4
2018-09-02T03:31:39.817Z,95943.4
2018-09-02T03:32:42.256Z,95946.9
2018-09-02T03:33:44.404Z,95946
2018-09-02T03:34:46.853Z,95945.7
2018-09-02T03:35:49.278Z,95948.8
2018-09-02T03:36:51.453Z,95948.3
2018-09-02T03:37:53.884Z,95948.9
2018-09-02T03:38:56.025Z,95947.5
2018-09-02T03:39:58.476Z,95942.9
2018-09-02T03:41:00.906Z,95943.1
2018-09-02T03:42:03.335Z,95941.4
2018-09-02T03:43:05.770Z,95935.2
2018-09-02T03:44:08.216Z,95935.9
2018-09-02T03:45:10.661Z,95935.7
2018-09-02T03:46:13.097Z,95929.5
2018-09-02T03:47:15.539Z,95929.8
2018-09-02T03:48:17.687Z,95930
2018-09-02T03:49:20.115Z,95926.4
2018-09-02T03:50:22.553Z,95924.3
2018-09-02T03:51:24.986Z,95925
2018-09-02T03:52:27.416Z,95922.9
2018-09-02T03:53:29.852Z,95929.6
2018-09-02T03:54:32.282Z,95928.2
2018-09-02T03:55:34.449Z,95924
2018-09-02T03:56:36.883Z,95928.5
2018-09-02T03:57:39.046Z,95925.6
2018-09-02T03:58:41.478Z,95923
2018-09-02T03:59:43.909Z,95923.1
2018-09-02T04:00:46.348Z,95920.5
2018-09-02T04:01:48.779Z,95917.9
2018-09-02T04:02:51.227Z,95914.9
2018-09-02T04:03:53.662Z,95914.8
2018-09-02T04:04:55.848Z,95915.8
2018-09-02T04:05:58.279Z,95913.8
2018-09-02T04:07:00.715Z,95914.6
2018-09-02T04:08:03.148Z,95910.1
2018-09-02T04:09:05.638Z,95909.7
2018-09-02T04:10:08.071Z,95913.5
2018-09-02T04:11:10.680Z,95911
2018-09-02T04:12:13.163Z,95907.8
2018-09-02T04:13:15.600Z,95906.7
2018-09-02T04:14:18.040Z,95909.5
2018-09-02T04:15:20.483Z,95908.4
2018-09-02T04:16:22.917Z,95908.5
2018-09-02T04:17:25.353Z,95907.1
2018-09-02T04:18:27.799Z,95909.3
2018-09-02T04:19:30.281Z,95907.3
2018-09-02T04:20:32.732Z,95907
2018-09-02T04:21:35.178Z,95908.4
2018-09-02T04:22:37.068Z,95911.3
2018-09-02T04:23:39.504Z,95911.1
2018-09-02T04:24:41.674Z,95909.7
2018-09-02T04:25:44.120Z,95912.6
2018-09-02T04:26:46.556Z,95913.3
2018-09-02T04:27:48.992Z,95908.5
2018-09-02T04:28:51.443Z,95909.3
2018-09-02T04:29:53.868Z,95913.1
2018-09-02T04:30:56.303Z,95909
2018-09-02T04:31:58.734Z,95909.7
2018-09-02T04:33:01.171Z,95911
2018-09-02T04:34:03.593Z,95909
2018-09-02T04:35:06.017Z,95911.2
2018-09-02T04:36:08.446Z,95910.5
2018-09-02T04:37:10.877Z,95912.1
2018-09-02T04:38:13.317Z,95912.5
2018-09-02T04:39:15.773Z,95913.4
2018-09-02T04:40:18.207Z,95909.4
2018-09-02T04:41:20.643Z,95912.2
2018-09-02T04:42:23.130Z,95908.4
2018-09-02T04:43:25.545Z,95908
2018-09-02T04:44:27.984Z,95912.6
2018-09-02T04:45:30.417Z,95909.6
2018-09-02T04:46:32.852Z,95916.7
2018-09-02T04:47:35.306Z,95920.5
2018-09-02T04:48:37.749Z,95920.1
2018-09-02T04:49:40.204Z,95921.8
2018-09-02T04:50:42.346Z,95918.9
2018-09-02T04:51:44.792Z,95921.2
2018-09-02T04:52:46.949Z,95924.6
2018-09-02T04:53:49.381Z,95923.5
2018-09-02T04:54:51.836Z,95922.3
2018-09-02T04:55:54.346Z,95918.5
2018-09-02T04:56:56.263Z,95919.7
2018-09-02T04:57:58.716Z,95913.5
2018-09-02T04:59:00.885Z,95910.8
2018-09-02T05:00:03.314Z,95908.7
2018-09-02T05:01:05.478Z,95906.8
2018-09-02T05:02:07.906Z,95910.1
2018-09-02T05:03:10.350Z,95910.8
2018-09-02T05:04:12.777Z,95907.8
2018-09-02T05:05:15.216Z,95907.9
2018-09-02T05:06:17.649Z,95912.4
2018-09-02T05:07:20.088Z,95913.5
2018-09-02T05:08:22.235Z,95913.3
2018-09-02T05:09:24.682Z,95910.5
2018-09-02T05:10:27.122Z,95916.3
2018-09-02T05:11:29.563Z,95918.9
2018-09-02T05:12:31.992Z,95918.9
2018-09-02T05:13:34.428Z,95916.6
2018-09-02T05:14:36.852Z,95916.8
2018-09-02T05:15:39.293Z,95917.8
2018-09-02T05:16:41.729Z,95916
2018-09-02T05:17:44.156Z,95919.8
2018-09-02T05:18:46.604Z,95914.3
2018-09-02T05:19:49.053Z,95917.8
2018-09-02T05:20:51.488Z,95917.3
2018-09-02T05:21:53.920Z,95915.5
2018-09-02T05:22:56.349Z,95914.4
2018-09-02T05:23:58.784Z,95915.4
2018-09-02T05:25:01.252Z,95915.8
2018-09-02T05:26:03.418Z,95912.6
2018-09-02T05:27:05.576Z,95907
2018-09-02T05:28:08.007Z,95908.2
2018-09-02T05:29:10.436Z,95905
2018-09-02T05:30:12.890Z,95908.7
2018-09-02T05:31:15.347Z,95903.1
2018-09-02T05:32:17.771Z,95904.5
2018-09-02T05:33:20.197Z,95905.9
2018-09-02T05:34:22.644Z,95906.9
2018-09-02T05:35:25.094Z,95909.6
2018-09-02T05:36:27.528Z,95907.6
2018-09-02T05:37:29.957Z,95907
2018-09-02T05:38:32.394Z,95908.7
2018-09-02T05:39:34.845Z,95908.8
2018-09-02T05:40:37.027Z,95907.2
2018-09-02T05:41:39.456Z,95904.1
2018-09-02T05:42:41.919Z,95903.3
2018-09-02T05:43:44.072Z,95903.8
2018-09-02T05:44:46.503Z,95903.1
2018-09-02T05:45:48.942Z,95901.9
2018-09-02T05:46:51.380Z,95900.9
2018-09-02T05:47:53.827Z,95901.6
2018-09-02T05:48:56.263Z,95898.8
2018-09-02T05:49:58.753Z,95893.2
2018-09-02T05:51:01.224Z,95900
2018-09-02T05:52:03.656Z,95896.6
2018-09-02T05:53:06.086Z,95900.4
2018-09-02T05:54:08.535Z,95898.1
2018-09-02T05:55:10.689Z,95901
2018-09-02T05:56:13.121Z,95898.7
2018-09-02T05:57:15.562Z,95899.3
2018-09-02T05:58:18.017Z,95901.4
2018-09-02T05:59:20.196Z,95902.3
2018-09-02T06:00:22.633Z,95903.9
2018-09-02T06:01:25.054Z,95904.4
2018-09-02T06:02:27.485Z,95908.3
2018-09-02T06:03:29.907Z,95910.1
2018-09-02T06:04:32.344Z,95909
2018-09-02T06:05:34.788Z,95916.1
2018-09-02T06:06:37.215Z,95914.8
2018-09-02T06:07:39.637Z,95918.6
2018-09-02T06:08:42.076Z,95915.2
2018-09-02T06:09:44.507Z,95913.8
2018-09-02T06:10:46.947Z,95913.1
2018-09-02T06:12:04.056Z,95915.8
2018-09-02T06:13:06.232Z,95914.5
2018-09-02T06:14:08.677Z,95911.5
2018-09-02T06:15:10.833Z,95917.4
2018-09-02T06:16:13.256Z,95917.8
2018-09-02T06:17:15.566Z,95920.4
2018-09-02T06:18:18.034Z,95922.4
2018-09-02T06:19:20.464Z,95927.3
2018-09-02T06:20:22.897Z,95928.6
2018-09-02T06:21:25.340Z,95923.5
2018-09-02T06:22:27.786Z,95926.9
2018-09-02T06:23:30.223Z,95924.2
2018-09-02T06:24:32.667Z,95926
2018-09-02T06:25:35.097Z,95925.8
2018-09-02T06:26:37.536Z,95924.2
2018-09-02T06:27:40.006Z,95920.5
2018-09-02T06:28:42.433Z,95917.3
2018-09-02T06:29:44.867Z,95913.6
2018-09-02T06:30:47.391Z,95915.4
2018-09-02T06:31:49.871Z,95916.6
2018-09-02T06:32:52.750Z,95919
2018-09-02T06:33:54.974Z,95922.5
2018-09-02T06:34:57.413Z,95919.3
2018-09-02T06:35:59.848Z,95919.4
2018-09-02T06:37:02.355Z,95916.8
2018-09-02T06:38:04.784Z,95915.8
2018-09-02T06:39:07.217Z,95917.2
2018-09-02T06:40:09.651Z,95917
2018-09-02T06:41:12.107Z,95917.2
2018-09-02T06:42:14.296Z,95916.5
2018-09-02T06:43:16.736Z,95915.2
2018-09-02T06:44:19.174Z,95915.3
2018-09-02T06:45:21.317Z,95913.3
2018-09-02T06:46:23.748Z,95909.1
2018-09-02T06:47:25.878Z,95902.8
2018-09-02T06:48:28.043Z,95900.9
2018-09-02T06:49:30.484Z,95903.3
2018-09-02T06:50:32.911Z,95901
2018-09-02T06:51:35.369Z,95899.1
2018-09-02T06:52:37.811Z,95901.5
2018-09-02T06:53:40.244Z,95902.1
2018-09-02T06:54:42.401Z,95902.8
2018-09-02T06:55:44.558Z,95906.4
2018-09-02T06:56:47.007Z,95900
2018-09-02T06:57:49.445Z,95904.5
2018-09-02T06:58:51.888Z,95901.5
2018-09-02T06:59:54.337Z,95904.3
2018-09-02T07:00:56.881Z,95906.4
2018-09-02T07:01:59.344Z,95903.1
2018-09-02T07:03:01.831Z,95904.1
2018-09-02T07:04:03.718Z,95901.3
2018-09-02T07:05:06.166Z,95901.6
2018-09-02T07:06:08.607Z,95902.6
2018-09-02T07:07:10.865Z,95903.1
2018-09-02T07:08:13.343Z,95902.8
2018-09-02T07:09:15.519Z,95901.7
2018-09-02T07:10:17.952Z,95907.4
2018-09-02T07:11:20.383Z,95907.9
2018-09-02T07:12:22.857Z,95909.6
2018-09-02T07:13:25.327Z,95914.2
2018-09-02T07:14:28.232Z,95910.1
2018-09-02T07:15:30.858Z,95914.6
2018-09-02T07:16:33.284Z,95912.7
2018-09-02T07:17:35.721Z,95916.4
2018-09-02T07:18:37.885Z,95912
2018-09-02T07:19:40.338Z,95917.3
2018-09-02T07:20:42.774Z,95912.3
2018-09-02T07:21:45.209Z,95913
2018-09-02T07:22:47.633Z,95911.4
2018-09-02T07:23:50.059Z,95912.2
2018-09-02T07:24:52.495Z,95911.5
2018-09-02T07:25:54.936Z,95910.8
2018-09-02T07:26:57.378Z,95915.8
2018-09-02T07:27:59.810Z,95922
2018-09-02T07:29:02.238Z,95919.3
2018-09-02T07:30:04.417Z,95921
2018-09-02T07:31:06.466Z,95920.2
2018-09-02T07:32:08.906Z,95917.1
2018-09-02T07:33:11.343Z,95911.7
2018-09-02T07:34:13.860Z,95914.6
2018-09-02T07:35:16.338Z,95910.8
2018-09-02T07:36:18.764Z,95911.7
2018-09-02T07:37:21.202Z,95913.3
2018-09-02T07:38:23.655Z,95911.2
2018-09-02T07:39:26.113Z,95912.7
2018-09-02T07:40:28.589Z,95911.5
2018-09-02T07:41:31.029Z,95917
2018-09-02T07:42:33.460Z,95920.3
2018-09-02T07:43:36.058Z,95919.9
2018-09-02T07:44:38.243Z,95920.9
2018-09-02T07:45:40.698Z,95920.1
2018-09-02T07:46:43.150Z,95922.5
2018-09-02T07:47:45.622Z,95922.4
2018-09-02T07:48:48.053Z,95924.8
2018-09-02T07:49:50.482Z,95924.7
2018-09-02T07:50:52.930Z,95928.5
2018-09-02T07:51:55.388Z,95926.4
2018-09-02T07:52:57.836Z,95926.1
2018-09-02T07:54:00.287Z,95919.8
2018-09-02T07:55:02.796Z,95918.4
2018-09-02T07:56:05.247Z,95916.3
2018-09-02T07:57:07.693Z,95918
2018-09-02T07:58:10.127Z,95910.7
2018-09-02T07:59:12.574Z,95911.8
2018-09-02T08:00:15.035Z,95908.3
2018-09-02T08:01:17.476Z,95903.8
2018-09-02T08:02:19.956Z,95901.8
2018-09-02T08:03:22.385Z,95904.3
2018-09-02T08:04:24.832Z,95907.2
2018-09-02T08:05:26.996Z,95910.7
2018-09-02T08:06:29.452Z,95912.8
2018-09-02T08:07:31.884Z,95908
2018-09-02T08:08:34.558Z,95912.4
2018-09-02T08:09:37.021Z,95920.8
2018-09-02T08:10:39.484Z,95923.3
2018-09-02T08:11:42.011Z,95921
2018-09-02T08:12:45.365Z,95922.5
2018-09-02T08:13:48.097Z,95921.4
2018-09-02T08:14:50.539Z,95922.2
2018-09-02T08:15:52.677Z,95923.6
2018-09-02T08:16:55.126Z,95925.6
2018-09-02T08:17:57.568Z,95923
2018-09-02T08:18:59.995Z,95929.6
2018-09-02T08:20:02.680Z,95928.7
2018-09-02T08:21:05.119Z,95928
2018-09-02T08:22:07.545Z,95930.4
2018-09-02T08:23:09.985Z,95926.9
2018-09-02T08:24:12.425Z,95925.8
2018-09-02T08:25:14.917Z,95932.3
2018-09-02T08:26:17.353Z,95930.2
2018-09-02T08:27:19.785Z,95935
2018-09-02T08:28:22.223Z,95938.7
2018-09-02T08:29:24.657Z,95940.7
2018-09-02T08:30:26.857Z,95943.2
2018-09-02T08:31:29.281Z,95946.2
2018-09-02T08:32:31.419Z,95942.1
2018-09-02T08:33:33.853Z,95949.2
2018-09-02T08:34:36.298Z,95941.7
2018-09-02T08:35:38.734Z,95945.4
2018-09-02T08:36:41.178Z,95939.4
2018-09-02T08:37:43.618Z,95936.7
2018-09-02T08:38:46.327Z,95934.3
2018-09-02T08:39:48.913Z,95934.2
2018-09-02T08:40:51.350Z,95933.6
2018-09-02T08:41:53.796Z,95938.9
2018-09-02T08:42:56.224Z,95936.8
2018-09-02T08:43:58.670Z,95938.5
2018-09-02T08:45:01.101Z,95939
2018-09-02T08:46:03.549Z,95938.5
2018-09-02T08:47:05.994Z,95936.9
2018-09-02T08:48:08.426Z,95935.7
2018-09-02T08:49:10.874Z,95939.3
2018-09-02T08:50:13.309Z,95940.6
2018-09-02T08:51:15.762Z,95936.8
2018-09-02T08:52:18.186Z,95937.9
2018-09-02T08:53:20.341Z,95937.2
2018-09-02T08:54:22.776Z,95934.6
2018-09-02T08:55:25.229Z,95938
2018-09-02T08:56:27.667Z,95938.6
2018-09-02T08:57:30.126Z,95936.6
2018-09-02T08:58:32.294Z,95931.9
2018-09-02T08:59:34.908Z,95935.6
2018-09-02T09:00:37.371Z,95935.6
2018-09-02T09:01:40.049Z,95938.4
2018-09-02T09:02:42.597Z,95928.9
2018-09-02T09:03:45.051Z,95935.2
2018-09-02T09:04:47.490Z,95931.9
2018-09-02T09:05:49.917Z,95928.6
2018-09-02T09:06:52.349Z,95925.8
2018-09-02T09:07:55.528Z,95928.9
2018-09-02T09:09:00.014Z,95929.4
2018-09-02T09:10:03.377Z,95929.5
2018-09-02T09:11:05.814Z,95932
2018-09-02T09:12:08.284Z,95932.4
2018-09-02T09:13:10.725Z,95935.2
2018-09-02T09:14:13.338Z,95937.3
2018-09-02T09:15:15.953Z,95933
2018-09-02T09:16:18.520Z,95931
2018-09-02T09:17:21.097Z,95931
2018-09-02T09:18:23.556Z,95929.6
2018-09-02T09:19:26.012Z,95934
2018-09-02T09:20:28.459Z,95931.4
2018-09-02T09:21:30.803Z,95928.5
2018-09-02T09:22:33.430Z,95928.8
2018-09-02T09:23:35.707Z,95922.6
2018-09-02T09:24:38.154Z,95921.9
2018-09-02T09:25:40.598Z,95918
2018-09-02T09:26:43.045Z,95916.6
2018-09-02T09:27:45.225Z,95918.6
2018-09-02T09:28:47.671Z,95918.9
2018-09-02T09:29:50.111Z,95918.9
2018-09-02T09:30:52.559Z,95918.3
2018-09-02T09:31:54.998Z,95916.9
2018-09-02T09:32:57.446Z,95915.9
2018-09-02T09:33:59.867Z,95919.2
2018-09-02T09:35:02.320Z,95920.4
2018-09-02T09:36:04.767Z,95918.5
2018-09-02T09:37:07.209Z,95916.8
2018-09-02T09:38:09.378Z,95916.6
2018-09-02T09:39:11.827Z,95915.2
2018-09-02T09:40:14.268Z,95914.8
2018-09-02T09:41:16.722Z,95917.8
2018-09-02T09:42:19.204Z,95919.6
2018-09-02T09:43:21.643Z,95916
2018-09-02T09:44:24.076Z,95913
2018-09-02T09:45:26.512Z,95912.8
2018-09-02T09:46:28.947Z,95913.6
2018-09-02T09:47:31.392Z,95921.7
2018-09-02T09:48:33.829Z,95915.6
2018-09-02T09:49:36.287Z,95912.5
2018-09-02T09:50:38.718Z,95915.2
2018-09-02T09:51:40.876Z,95908.9
2018-09-02T09:52:43.319Z,95909.7
2018-09-02T09:53:45.764Z,95903.9
2018-09-02T09:54:48.183Z,95909.3
2018-09-02T09:55:50.665Z,95909.3
2018-09-02T09:56:53.143Z,95908.4
2018-09-02T09:57:55.584Z,95912.5
2018-09-02T09:58:58.036Z,95909
2018-09-02T10:00:00.486Z,95915.3
2018-09-02T10:01:02.946Z,95914
2018-09-02T10:02:05.091Z,95914.3
2018-09-02T10:03:07.238Z,95912.8
2018-09-02T10:04:09.664Z,95911.8
2018-09-02T10:05:12.141Z,95912.5
2018-09-02T10:06:14.579Z,95916.8
2018-09-02T10:07:17.017Z,95914.8
2018-09-02T10:08:19.474Z,95911.2
2018-09-02T10:09:21.922Z,95914
2018-09-02T10:10:24.214Z,95909
2018-09-02T10:11:26.767Z,95910.6
2018-09-02T10:12:29.219Z,95906.3
2018-09-02T10:13:31.673Z,95909
2018-09-02T10:14:34.118Z,95902.5
2018-09-02T10:15:36.308Z,95902.8
2018-09-02T10:16:38.462Z,95898.3
2018-09-02T10:17:40.553Z,95901.1
2018-09-02T10:18:42.989Z,95899.3
2018-09-02T10:19:45.420Z,95897.6
2018-09-02T10:20:47.871Z,95896.8
2018-09-02T10:21:50.327Z,95895.9
2018-09-02T10:22:52.766Z,95894.3
2018-09-02T10:23:54.922Z,95895.2
2018-09-02T10:24:57.082Z,95893.9
2018-09-02T10:25:59.508Z,95893.5
2018-09-02T10:27:01.927Z,95887.3
2018-09-02T10:28:04.357Z,95888
2018-09-02T10:29:06.816Z,95883.9
2018-09-02T10:30:09.250Z,95880.8
2018-09-02T10:31:11.700Z,95884.7
2018-09-02T10:32:14.134Z,95879.4
2018-09-02T10:33:16.804Z,95883.1
2018-09-02T10:34:19.593Z,95880
2018-09-02T10:35:22.047Z,95880.7
2018-09-02T10:36:24.499Z,95879.9
2018-09-02T10:37:26.932Z,95882.7
2018-09-02T10:38:29.373Z,95885.9
2018-09-02T10:39:31.820Z,95885.1
2018-09-02T10:40:33.982Z,95884.5
2018-09-02T10:41:36.959Z,95881.1
2018-09-02T10:42:39.492Z,95879.3
2018-09-02T10:43:41.647Z,95878.4
2018-09-02T10:44:44.090Z,95879.3
2018-09-02T10:45:46.274Z,95879.8
2018-09-02T10:46:48.457Z,95881.3
2018-09-02T10:47:50.887Z,95880.1
2018-09-02T10:48:53.348Z,95882.2
2018-09-02T10:49:55.791Z,95879.4
2018-09-02T10:50:58.247Z,95879.1
2018-09-02T10:52:00.675Z,95884.2
2018-09-02T10:53:03.102Z,95878.9
2018-09-02T10:54:05.542Z,95880.8
2018-09-02T10:55:07.698Z,95875.2
2018-09-02T10:56:10.129Z,95877.6
2018-09-02T10:57:12.566Z,95877.5
2018-09-02T10:58:15.001Z,95879.6
2018-09-02T10:59:17.455Z,95880.3
2018-09-02T11:00:19.894Z,95883.2
2018-09-02T11:01:22.325Z,95879.3
2018-09-02T11:02:24.791Z,95879.9
2018-09-02T11:03:27.229Z,95878.5
2018-09-02T11:04:29.664Z,95879.5
2018-09-02T11:05:32.107Z,95877.7
2018-09-02T11:06:34.579Z,95878.9
2018-09-02T11:07:37.155Z,95876
2018-09-02T11:08:40.074Z,95875.5
2018-09-02T11:09:42.689Z,95876.4
2018-09-02T11:10:45.116Z,95877.3
2018-09-02T11:11:47.567Z,95879.7
2018-09-02T11:12:50.019Z,95881.8
2018-09-02T11:13:53.549Z,95878.1
2018-09-02T11:14:56.435Z,95876.8
2018-09-02T11:15:58.876Z,95878.5
2018-09-02T11:17:01.328Z,95878.9
2018-09-02T11:18:03.485Z,95873
2018-09-02T11:19:05.679Z,95878.2
2018-09-02T11:20:08.107Z,95874.8
2018-09-02T11:21:10.541Z,95870.1
2018-09-02T11:22:12.992Z,95871.4
2018-09-02T11:23:15.429Z,95871.7
2018-09-02T11:24:17.867Z,95869.9
2018-09-02T11:25:20.051Z,95871.7
2018-09-02T11:26:22.214Z,95869.1
2018-09-02T11:27:24.653Z,95868.9
2018-09-02T11:28:27.097Z,95869.8
2018-09-02T11:29:29.525Z,95872.4
2018-09-02T11:30:31.985Z,95868.8
2018-09-02T11:31:34.429Z,95870.4
2018-09-02T11:32:36.888Z,95872.2
2018-09-02T11:33:39.377Z,95868.1
2018-09-02T11:34:41.567Z,95868.4
2018-09-02T11:35:44.009Z,95871.2
2018-09-02T11:36:46.447Z,95872.2
2018-09-02T11:37:48.896Z,95867
2018-09-02T11:38:51.329Z,95868.6
2018-09-02T11:39:53.496Z,95869.9
2018-09-02T11:40:55.953Z,95867.4
2018-09-02T11:41:58.397Z,95859.2
2018-09-02T11:43:01.361Z,95860.2
2018-09-02T11:44:03.859Z,95859.9
2018-09-02T11:45:06.670Z,95858.2
2018-09-02T11:46:09.266Z,95858.2
2018-09-02T11:47:11.698Z,95858.6
2018-09-02T11:48:14.147Z,95861.2
2018-09-02T11:49:16.579Z,95860.3
2018-09-02T11:50:19.022Z,95857.3
2018-09-02T11:51:21.469Z,95859.5
2018-09-02T11:52:23.946Z,95859.2
2018-09-02T11:53:26.382Z,95862.5
2018-09-02T11:54:28.897Z,95862.9
2018-09-02T11:55:31.353Z,95851.5
2018-09-02T11:56:33.808Z,95854.2
2018-09-02T11:57:36.130Z,95853.7
2018-09-02T11:58:38.586Z,95847.8
2018-09-02T11:59:41.024Z,95850.3
2018-09-02T12:00:43.516Z,95847.8
2018-09-02T12:01:45.952Z,95846.1
2018-09-02T12:02:48.387Z,95847.3
2018-09-02T12:03:50.987Z,95847.8
2018-09-02T12:04:53.849Z,95852.5
2018-09-02T12:05:56.513Z,95846.4
2018-09-02T12:06:58.954Z,95847.8
2018-09-02T12:08:01.394Z,95842.5
2018-09-02T12:09:03.878Z,95840.5
2018-09-02T12:10:06.367Z,95844.4
2018-09-02T12:11:08.799Z,95843.2
2018-09-02T12:12:11.235Z,95841.8
2018-09-02T12:13:13.663Z,95843.9
2018-09-02T12:14:16.406Z,95836.9
2018-09-02T12:15:18.899Z,95836.1
2018-09-02T12:16:21.094Z,95835.1
2018-09-02T12:17:23.533Z,95834.3
2018-09-02T12:18:25.967Z,95835.8
2018-09-02T12:19:28.424Z,95838.8
2018-09-02T12:20:30.864Z,95835.3
2018-09-02T12:21:33.038Z,95833.8
2018-09-02T12:22:35.466Z,95836.1
2018-09-02T12:23:37.905Z,95835.2
2018-09-02T12:24:40.343Z,95835.8
2018-09-02T12:25:42.798Z,95833.8
2018-09-02T12:26:45.307Z,95829.7
2018-09-02T12:27:47.750Z,95827.9
2018-09-02T12:28:50.198Z,95828.8
2018-09-02T12:29:52.365Z,95828.8
2018-09-02T12:30:54.817Z,95826.2
2018-09-02T12:31:57.243Z,95825.4
2018-09-02T12:32:59.673Z,95825
2018-09-02T12:34:02.107Z,95824.2
2018-09-02T12:35:04.561Z,95822.8
2018-09-02T12:36:07.019Z,95822.3
2018-09-02T12:37:09.460Z,95820
2018-09-02T12:38:11.905Z,95819.9
2018-09-02T12:39:14.336Z,95817.8
2018-09-02T12:40:16.797Z,95821